Time;durP1;ratioP1;P1;durP2;ratioP2;P2;SDS_P1;SDS_P2;PMS_P1;PMS_P2;Temp;Humidity;BMP_temperature;BMP_pressure;BME280_temperature;BME280_humidity;BME280_pressure;Samples;Min_cycle;Max_cycle;Signal;HPM_P1;HPM_P2
2023/03/21 00:01:50;;;;;;;11.30;7.45;;;;;;;18.65;53.18;101412.25;5057407;28;20049;-49
2023/03/21 00:04:17;;;;;;;8.60;7.65;;;;;;;18.65;53.10;101408.69;5055470;28;20411;-50
2023/03/21 00:06:45;;;;;;;9.50;7.43;;;;;;;18.64;53.11;101407.00;5056319;28;20052;-50
2023/03/21 00:09:12;;;;;;;10.60;7.38;;;;;;;18.63;53.09;101399.91;5056270;28;20049;-50
2023/03/21 00:11:39;;;;;;;10.05;6.78;;;;;;;18.63;53.03;101400.75;5056439;28;20064;-49
2023/03/21 00:14:07;;;;;;;11.68;7.68;;;;;;;18.64;52.93;101407.00;5056297;28;20045;-49
2023/03/21 00:16:35;;;;;;;8.25;6.32;;;;;;;18.62;52.96;101401.72;5056317;28;20053;-50
2023/03/21 00:19:06;;;;;;;8.48;7.45;;;;;;;18.63;52.86;101398.06;5054975;28;20049;-50
2023/03/21 00:21:37;;;;;;;8.27;6.38;;;;;;;18.61;52.81;101400.03;5055763;28;20529;-49
2023/03/21 00:24:24;;;;;;;8.52;6.90;;;;;;;18.62;52.75;101398.19;5055750;28;20048;-50
2023/03/21 00:26:51;;;;;;;9.40;7.13;;;;;;;18.61;52.77;101397.34;5056141;28;20049;-50
2023/03/21 00:29:19;;;;;;;9.27;7.07;;;;;;;18.60;52.88;101395.63;5056021;28;20045;-51
2023/03/21 00:31:47;;;;;;;7.78;7.00;;;;;;;18.61;52.81;101391.97;5055859;28;20056;-50
2023/03/21 00:34:14;;;;;;;8.95;7.32;;;;;;;18.60;52.81;101389.41;5054712;28;20051;-52
2023/03/21 00:36:49;;;;;;;9.52;7.53;;;;;;;18.60;52.87;101384.91;5056357;28;20053;-51
2023/03/21 00:39:16;;;;;;;6.97;5.70;;;;;;;18.60;52.82;101387.59;5054724;28;20510;-49
2023/03/21 00:41:44;;;;;;;7.35;6.28;;;;;;;18.60;52.61;101382.22;5055469;28;20356;-51
2023/03/21 00:44:14;;;;;;;7.35;6.65;;;;;;;18.60;52.71;101382.22;5055860;28;20045;-52
2023/03/21 00:46:42;;;;;;;7.95;6.57;;;;;;;18.59;52.78;101383.19;5055722;28;20052;-52
2023/03/21 00:49:32;;;;;;;8.25;7.15;;;;;;;18.58;52.79;101376.09;5055608;28;20483;-49
2023/03/21 00:52:07;;;;;;;7.20;6.47;;;;;;;18.60;52.83;101367.97;5055630;28;20072;-50
2023/03/21 00:54:46;;;;;;;8.73;7.18;;;;;;;18.59;52.67;101372.44;5055514;28;20048;-50
2023/03/21 00:57:13;;;;;;;7.75;6.88;;;;;;;18.58;52.83;101365.38;5055219;28;20510;-51
2023/03/21 00:59:41;;;;;;;9.98;6.78;;;;;;;18.58;52.78;101365.38;5054126;28;20080;-51
2023/03/21 01:02:13;;;;;;;8.70;6.10;;;;;;;18.57;52.72;101358.31;5055106;28;20060;-48
2023/03/21 01:04:41;;;;;;;7.57;6.35;;;;;;;18.58;52.66;101357.34;5054047;28;20053;-48
2023/03/21 01:07:09;;;;;;;7.95;6.63;;;;;;;18.58;52.96;101353.81;5053765;28;20049;-50
2023/03/21 01:09:37;;;;;;;7.78;6.25;;;;;;;18.58;52.69;101360.03;5054055;28;20064;-47
2023/03/21 01:12:05;;;;;;;9.10;5.90;;;;;;;18.57;52.53;101352.09;5054708;28;20060;-46
2023/03/21 01:14:32;;;;;;;7.22;6.50;;;;;;;18.57;52.67;101352.94;5054890;28;20049;-51
2023/03/21 01:16:59;;;;;;;8.30;5.97;;;;;;;18.57;52.80;101347.59;5054891;28;20049;-53
2023/03/21 01:19:28;;;;;;;8.98;6.13;;;;;;;18.57;52.58;101350.28;5054849;28;20506;-51
2023/03/21 01:22:14;;;;;;;8.25;6.88;;;;;;;18.56;52.73;101335.16;5055181;28;20407;-51
2023/03/21 01:24:42;;;;;;;7.35;5.53;;;;;;;18.57;52.53;101342.22;5054879;28;20364;-49
2023/03/21 01:27:22;;;;;;;9.07;6.40;;;;;;;18.56;52.48;101335.16;5054711;28;20045;-50
2023/03/21 01:29:50;;;;;;;6.40;5.68;;;;;;;18.56;52.75;101331.63;5053527;28;20056;-49
2023/03/21 01:32:17;;;;;;;6.75;5.95;;;;;;;18.57;52.67;101338.69;5054719;28;20404;-52
2023/03/21 01:34:44;;;;;;;7.90;6.07;;;;;;;18.56;52.62;101331.63;5053545;28;20052;-50
2023/03/21 01:37:13;;;;;;;9.25;5.85;;;;;;;18.54;52.57;101329.03;5054587;28;20049;-49
2023/03/21 01:39:46;;;;;;;6.82;5.72;;;;;;;18.56;52.70;101323.59;5053671;28;20060;-49
2023/03/21 01:42:13;;;;;;;6.68;6.00;;;;;;;18.55;52.69;101328.06;5054828;28;20060;-49
2023/03/21 01:45:00;;;;;;;6.82;5.35;;;;;;;18.55;52.45;101333.44;5053615;28;20052;-49
2023/03/21 01:47:42;;;;;;;6.30;5.70;;;;;;;18.55;52.50;101330.75;5053413;28;20052;-46
2023/03/21 01:50:25;;;;;;;7.28;5.72;;;;;;;18.54;52.54;101321.84;5054366;28;20041;-48
2023/03/21 01:53:15;;;;;;;7.57;5.90;;;;;;;18.54;52.86;101321.00;5053311;28;20375;-48
2023/03/21 01:55:43;;;;;;;6.57;5.78;;;;;;;18.54;52.33;101312.97;5054039;28;20051;-48
2023/03/21 01:58:26;;;;;;;;;;;;;;;18.53;52.64;101314.78;5053841;28;20502;-47
2023/03/21 02:01:05;;;;;;;6.68;5.75;;;;;;;18.54;52.87;101321.00;5054236;28;19932;-49
2023/03/21 02:03:49;;;;;;;9.88;6.18;;;;;;;18.53;52.59;101311.25;5053252;28;20060;-47
2023/03/21 02:06:56;;;;;;;6.80;6.10;;;;;;;18.53;52.53;101308.56;5072098;28;20068;-49
2023/03/21 02:09:45;;;;;;;7.93;6.03;;;;;;;18.52;52.46;101307.72;5071555;28;20126;-48
2023/03/21 02:12:17;;;;;;;7.25;5.65;;;;;;;18.52;52.50;101302.34;5055086;28;20482;-50
2023/03/21 02:14:48;;;;;;;8.85;5.85;;;;;;;18.51;52.57;101300.66;5071579;28;20048;-49
2023/03/21 02:17:46;;;;;;;8.05;6.22;;;;;;;18.51;52.49;101302.44;5071388;28;20052;-49
2023/03/21 02:20:42;;;;;;;5.85;5.22;;;;;;;18.51;52.58;101305.13;5054744;28;20518;-51
2023/03/21 02:23:28;;;;;;;6.00;5.35;;;;;;;18.52;52.60;101304.19;5054446;28;20048;-51
2023/03/21 02:26:17;;;;;;;6.80;6.10;;;;;;;18.51;52.50;101305.13;5071425;28;20059;-50
2023/03/21 02:28:52;;;;;;;7.15;5.80;;;;;;;18.51;52.65;101297.09;5055335;28;20071;-49
2023/03/21 02:31:55;;;;;;;6.63;5.95;;;;;;;18.50;52.48;101290.88;5054848;28;20055;-50
2023/03/21 02:34:45;;;;;;;7.63;6.15;;;;;;;18.50;52.44;101290.88;5071230;28;20056;-47
2023/03/21 02:37:25;;;;;;;10.93;5.65;;;;;;;18.50;52.47;101293.56;5051828;28;20057;-47
2023/03/21 02:40:14;;;;;;;6.53;5.70;;;;;;;18.50;52.50;101285.50;5052515;28;20060;-46
2023/03/21 02:42:44;;;;;;;6.82;5.75;;;;;;;18.50;52.52;101282.84;5052977;28;20049;-49
2023/03/21 02:45:29;;;;;;;5.82;5.22;;;;;;;18.49;52.59;101285.66;5052904;28;20055;-51
2023/03/21 02:48:05;;;;;;;8.02;5.43;;;;;;;18.48;52.46;101290.16;5052790;28;20056;-51
2023/03/21 02:50:47;;;;;;;6.50;5.82;;;;;;;18.49;52.43;101286.50;5052643;28;20064;-49
2023/03/21 02:53:22;;;;;;;6.18;5.50;;;;;;;18.49;52.49;101277.59;5052004;28;20060;-49
2023/03/21 02:55:52;;;;;;;7.00;5.82;;;;;;;18.49;52.54;101269.56;5053651;28;20037;-48
2023/03/21 02:58:24;;;;;;;5.88;5.00;;;;;;;18.49;52.55;101272.25;5052148;28;20049;-48
2023/03/21 03:00:56;;;;;;;6.80;5.30;;;;;;;18.48;52.38;101271.38;5052656;28;20491;-50
2023/03/21 03:03:34;;;;;;;7.63;5.60;;;;;;;18.49;52.34;101277.59;5052227;28;20068;-46
2023/03/21 03:06:15;;;;;;;5.78;4.97;;;;;;;18.48;52.34;101273.22;5052170;28;20475;-45
2023/03/21 03:08:51;;;;;;;6.72;5.85;;;;;;;18.47;52.24;101277.72;5053526;28;20072;-50
2023/03/21 03:11:43;;;;;;;7.07;5.13;;;;;;;18.48;52.38;101278.56;5053382;28;20045;-49
2023/03/21 03:14:26;;;;;;;7.38;5.40;;;;;;;18.47;52.29;101285.78;5052216;28;20502;-48
2023/03/21 03:17:40;;;;;;;6.32;5.18;;;;;;;18.48;52.28;101278.56;5052271;28;20057;-50
2023/03/21 03:20:16;;;;;;;5.45;4.57;;;;;;;18.48;52.26;101283.94;5053313;28;20049;-51
2023/03/21 03:22:56;;;;;;;6.65;5.90;;;;;;;18.47;52.33;101274.16;5052254;28;20045;-50
2023/03/21 03:25:35;;;;;;;6.35;5.47;;;;;;;18.47;52.33;101274.16;5053118;28;20048;-46
2023/03/21 03:28:16;;;;;;;6.97;5.45;;;;;;;18.47;52.27;101276.84;5052198;28;20057;-49
2023/03/21 03:30:46;;;;;;;6.38;5.38;;;;;;;18.46;52.39;101269.78;5051927;28;20059;-47
2023/03/21 03:33:40;;;;;;;9.13;5.13;;;;;;;18.47;52.32;101276.84;5051772;28;20053;-48
2023/03/21 03:36:10;;;;;;;5.50;4.55;;;;;;;18.46;52.33;101267.09;5053471;28;20045;-50
2023/03/21 03:38:56;;;;;;;7.22;5.00;;;;;;;18.46;52.28;101269.78;5051859;28;20064;-48
2023/03/21 03:41:26;;;;;;;6.25;4.72;;;;;;;18.46;52.30;101261.72;5051613;28;20441;-52
2023/03/21 03:44:01;;;;;;;9.55;5.50;;;;;;;18.45;52.37;101265.41;5052094;28;20060;-46
2023/03/21 03:46:46;;;;;;;6.50;5.32;;;;;;;18.46;52.49;101267.09;5052020;28;20057;-49
2023/03/21 03:49:19;;;;;;;6.25;5.20;;;;;;;18.45;52.31;101265.41;5051976;28;20053;-45
2023/03/21 03:52:19;;;;;;;6.93;5.30;;;;;;;18.45;52.45;101262.72;5053024;28;20052;-49
2023/03/21 03:54:57;;;;;;;6.47;5.80;;;;;;;18.45;52.56;101273.44;5055200;28;20395;-49
2023/03/21 03:57:26;;;;;;;6.82;5.00;;;;;;;18.44;52.51;101267.22;5055904;28;20403;-52
2023/03/21 03:59:55;;;;;;;6.30;4.90;;;;;;;18.45;52.59;101265.41;5055580;28;20048;-52
2023/03/21 04:02:43;;;;;;;6.90;4.95;;;;;;;18.44;52.61;101269.91;5063184;28;20060;-53
2023/03/21 04:05:19;;;;;;;8.33;5.07;;;;;;;18.44;52.49;101272.59;5055605;28;20049;-49
2023/03/21 04:07:49;;;;;;;5.30;4.63;;;;;;;18.43;52.63;101267.31;5056780;28;20052;-48
2023/03/21 04:10:21;;;;;;;;;;;;;;;18.43;52.53;101270.88;5056925;28;20064;-51
2023/03/21 04:12:49;;;;;;;5.70;4.82;;;;;;;18.43;52.45;101276.25;5055300;28;19921;-49
2023/03/21 04:15:24;;;;;;;7.93;5.47;;;;;;;18.43;52.61;101270.88;5055103;28;20507;-51
2023/03/21 04:17:58;;;;;;;6.72;4.90;;;;;;;18.43;52.75;101275.38;5054952;28;20052;-50
2023/03/21 04:20:25;;;;;;;7.68;4.65;;;;;;;18.43;52.75;101276.25;5055842;28;20071;-49
2023/03/21 04:23:04;;;;;;;6.05;4.95;;;;;;;18.42;52.51;101273.66;5054570;28;20053;-52
2023/03/21 04:25:34;;;;;;;5.53;4.97;;;;;;;18.43;52.62;101272.69;5052918;28;20483;-49
2023/03/21 04:28:05;;;;;;;6.30;4.78;;;;;;;18.43;52.68;101264.63;5054957;28;20052;-50
2023/03/21 04:30:45;;;;;;;7.97;4.78;;;;;;;18.43;52.63;101273.56;5054929;28;20064;-48
2023/03/21 04:33:27;;;;;;;6.03;4.73;;;;;;;18.43;52.53;101261.97;5056079;28;20056;-48
2023/03/21 04:35:57;;;;;;;5.82;5.03;;;;;;;18.43;52.72;101259.28;5054966;28;20056;-50
2023/03/21 04:38:29;;;;;;;;;;;;;;;18.44;52.62;101255.66;5055612;28;20392;-49
2023/03/21 04:41:02;;;;;;;5.13;4.43;;;;;;;18.43;52.81;101254.81;5054981;28;20294;-51
2023/03/21 04:43:30;;;;;;;8.20;5.25;;;;;;;18.44;52.63;101258.34;5054598;28;20514;-49
2023/03/21 04:45:58;;;;;;;7.93;5.03;;;;;;;18.42;52.56;101258.44;5055609;28;20041;-49
2023/03/21 04:48:26;;;;;;;6.07;4.72;;;;;;;18.42;52.71;101261.09;5054275;28;20053;-49
2023/03/21 04:50:55;;;;;;;4.75;4.13;;;;;;;18.42;52.62;101265.63;5054482;28;20385;-50
2023/03/21 04:53:22;;;;;;;5.38;4.75;;;;;;;18.43;52.63;101264.63;5054418;28;20495;-46
2023/03/21 04:55:50;;;;;;;6.25;4.90;;;;;;;18.42;52.72;101269.16;5054085;28;20053;-49
2023/03/21 04:58:22;;;;;;;5.05;4.43;;;;;;;18.43;52.61;101275.38;5054677;28;20060;-51
2023/03/21 05:00:51;;;;;;;7.03;5.18;;;;;;;18.43;52.68;101259.28;5055254;28;20052;-51
2023/03/21 05:03:20;;;;;;;5.57;4.72;;;;;;;18.42;52.61;101270.97;5054165;28;20053;-51
2023/03/21 05:05:48;;;;;;;7.88;4.88;;;;;;;18.43;52.66;101270.00;5054767;28;20048;-48
2023/03/21 05:08:18;;;;;;;5.80;4.25;;;;;;;18.43;52.52;101278.03;5055424;28;20041;-50
2023/03/21 05:10:45;;;;;;;7.20;5.03;;;;;;;18.42;52.57;101279.03;5055018;28;20051;-48
2023/03/21 05:13:12;;;;;;;5.07;4.57;;;;;;;18.40;52.52;101286.34;5055363;28;20526;-47
2023/03/21 05:15:40;;;;;;;6.78;4.70;;;;;;;18.40;52.56;101281.81;5053942;28;20049;-47
2023/03/21 05:18:10;;;;;;;4.60;3.97;;;;;;;18.40;52.41;101280.97;5054860;28;20048;-44
2023/03/21 05:20:53;;;;;;;6.40;4.00;;;;;;;18.39;52.45;101285.50;5053926;28;20049;-48
2023/03/21 05:23:21;;;;;;;5.43;4.78;;;;;;;18.40;52.54;101295.22;5054040;28;20059;-46
2023/03/21 05:25:49;;;;;;;6.93;4.40;;;;;;;18.39;52.41;101290.84;5053791;28;20068;-45
2023/03/21 05:28:35;;;;;;;5.40;4.68;;;;;;;18.39;52.43;101296.22;5053479;28;20056;-46
2023/03/21 05:31:04;;;;;;;5.43;4.07;;;;;;;18.40;52.34;101305.09;5053568;28;20056;-48
2023/03/21 05:33:32;;;;;;;5.70;4.70;;;;;;;18.39;52.43;101303.38;5053510;28;20056;-48
2023/03/21 05:35:59;;;;;;;6.07;4.18;;;;;;;18.39;52.34;101304.25;5053632;28;20056;-45
2023/03/21 05:38:30;;;;;;;5.70;4.38;;;;;;;18.38;52.43;101307.88;5053397;28;20411;-46
2023/03/21 05:40:58;;;;;;;6.47;4.22;;;;;;;18.39;52.24;101308.72;5053337;28;20045;-45
2023/03/21 05:43:26;;;;;;;7.85;4.38;;;;;;;18.39;52.49;101314.09;5053217;28;20052;-48
2023/03/21 05:45:54;;;;;;;5.47;4.40;;;;;;;18.38;52.26;101310.56;5053252;28;20053;-46
2023/03/21 05:48:23;;;;;;;4.45;3.90;;;;;;;18.38;52.35;101312.38;5052976;28;20049;-47
2023/03/21 05:51:06;;;;;;;5.35;4.22;;;;;;;18.38;52.08;101315.06;5053391;28;20135;-47
2023/03/21 05:53:34;;;;;;;5.15;4.38;;;;;;;18.38;52.24;101317.75;5053387;28;20690;-46
2023/03/21 05:56:02;;;;;;;6.20;4.63;;;;;;;18.38;52.16;101312.38;5053264;28;20052;-45
2023/03/21 05:58:41;;;;;;;5.00;4.05;;;;;;;18.38;52.17;101307.03;5053034;28;20049;-48
2023/03/21 06:01:09;;;;;;;5.40;4.35;;;;;;;18.37;52.17;101318.72;5052829;28;20395;-47
2023/03/21 06:03:40;;;;;;;5.05;4.30;;;;;;;18.37;52.07;101319.59;5053034;28;20044;-46
2023/03/21 06:06:26;;;;;;;5.60;4.05;;;;;;;18.36;52.07;101323.25;5052342;28;20041;-48
2023/03/21 06:08:59;;;;;;;8.55;3.55;;;;;;;18.38;52.00;101317.75;5052573;28;20052;-52
2023/03/21 06:11:30;;;;;;;5.03;4.38;;;;;;;18.36;51.96;101323.25;5052846;28;20044;-52
2023/03/21 06:14:19;;;;;;;4.95;3.38;;;;;;;18.37;52.01;101313.38;5053541;28;20053;-50
2023/03/21 06:17:04;;;;;;;5.90;4.22;;;;;;;18.36;52.05;101317.03;5051544;28;20060;-49
2023/03/21 06:19:33;;;;;;;7.35;4.65;;;;;;;18.37;51.95;101318.72;5052390;28;20056;-52
2023/03/21 06:22:11;;;;;;;4.47;4.07;;;;;;;18.36;52.04;101322.38;5037491;28;20049;-50
2023/03/21 06:24:40;;;;;;;6.38;4.32;;;;;;;18.36;51.95;101317.88;5052933;28;20053;-49
2023/03/21 06:27:07;;;;;;;7.15;3.78;;;;;;;18.37;52.12;101322.25;5053664;28;20049;-48
2023/03/21 06:29:50;;;;;;;4.93;4.20;;;;;;;18.37;52.05;101324.09;5052335;28;20074;-48
2023/03/21 06:32:18;;;;;;;7.82;4.53;;;;;;;18.37;52.02;101321.41;5052642;28;20053;-47
2023/03/21 06:34:47;;;;;;;5.88;4.40;;;;;;;18.37;52.03;101324.09;5052628;28;20064;-49
2023/03/21 06:37:15;;;;;;;5.07;4.38;;;;;;;18.38;51.84;101325.78;5052223;28;20041;-53
2023/03/21 06:39:42;;;;;;;4.50;3.63;;;;;;;18.38;51.94;101333.84;5053494;28;20067;-53
2023/03/21 06:42:11;;;;;;;5.15;4.25;;;;;;;18.37;51.92;101329.44;5052179;28;20049;-50
2023/03/21 06:44:38;;;;;;;6.38;4.80;;;;;;;18.38;51.99;101325.78;5052068;28;20060;-50
2023/03/21 06:47:10;;;;;;;5.18;4.68;;;;;;;18.37;51.95;101324.09;5052566;28;20472;-50
2023/03/21 06:49:41;;;;;;;4.43;3.85;;;;;;;18.38;52.12;101328.47;5052453;28;20511;-50
2023/03/21 06:52:11;;;;;;;5.60;4.13;;;;;;;18.38;51.96;101325.78;5052460;28;20049;-51
2023/03/21 06:54:39;;;;;;;6.10;4.03;;;;;;;18.38;51.91;101331.16;5052336;28;20053;-50
2023/03/21 06:57:12;;;;;;;7.20;4.63;;;;;;;18.38;51.92;101326.66;5052297;28;20053;-51
2023/03/21 06:59:42;;;;;;;5.50;4.88;;;;;;;18.39;51.86;101322.13;5052409;28;20060;-51
2023/03/21 07:02:14;;;;;;;5.50;4.18;;;;;;;18.39;51.80;101322.13;5052569;28;20638;-46
2023/03/21 07:04:49;;;;;;;5.10;3.83;;;;;;;18.38;51.73;101321.28;5052346;28;20052;-49
2023/03/21 07:07:25;;;;;;;5.05;4.30;;;;;;;18.40;51.66;101326.56;5052590;28;20037;-51
2023/03/21 07:09:52;;;;;;;5.90;4.03;;;;;;;18.39;51.76;101325.69;5053439;28;20060;-53
2023/03/21 07:12:20;;;;;;;5.65;3.50;;;;;;;18.40;51.62;101332.75;5052145;28;20053;-54
2023/03/21 07:15:07;;;;;;;4.90;4.18;;;;;;;18.42;51.77;101321.91;5052287;28;20072;-47
2023/03/21 07:17:35;;;;;;;4.78;4.18;;;;;;;18.41;51.74;101326.44;5051776;28;20049;-47
2023/03/21 07:20:06;;;;;;;5.53;4.45;;;;;;;18.40;51.75;101322.03;5052478;28;20049;-50
2023/03/21 07:22:35;;;;;;;6.90;4.65;;;;;;;18.42;51.65;101332.63;5053100;28;20056;-47
2023/03/21 07:25:03;;;;;;;4.90;4.07;;;;;;;18.42;51.75;101329.97;5053153;28;20056;-51
2023/03/21 07:27:37;;;;;;;7.30;3.92;;;;;;;18.42;51.85;101338.84;5051842;28;20048;-50
2023/03/21 07:30:09;;;;;;;5.88;4.30;;;;;;;18.43;51.86;101328.97;5056991;28;20386;-50
2023/03/21 07:32:36;;;;;;;7.07;4.07;;;;;;;18.44;51.88;101330.72;5056888;28;20105;-52
2023/03/21 07:35:11;;;;;;;5.60;4.35;;;;;;;18.43;51.79;101328.97;5055993;28;20052;-52
2023/03/21 07:37:39;;;;;;;5.72;4.22;;;;;;;18.43;52.04;101331.66;5055712;28;20049;-49
2023/03/21 07:40:09;;;;;;;6.25;3.75;;;;;;;18.43;51.84;101329.88;5055569;28;20057;-50
2023/03/21 07:42:39;;;;;;;4.88;3.83;;;;;;;18.45;52.12;101335.09;5054956;28;20084;-49
2023/03/21 07:45:13;;;;;;;8.55;5.22;;;;;;;18.46;52.03;101328.75;5066005;28;20053;-50
2023/03/21 07:47:41;;;;;;;7.23;4.67;;;;;;;18.47;52.25;101327.78;5074535;28;20388;-50
2023/03/21 07:50:08;;;;;;;10.43;8.85;;;;;;;18.48;51.26;101333.06;5076347;28;20106;-50
2023/03/21 07:52:36;;;;;;;17.30;11.15;;;;;;;18.49;50.39;101332.06;5076227;28;20048;-49
2023/03/21 07:55:04;;;;;;;13.73;10.23;;;;;;;18.49;50.21;101329.38;5075913;28;20051;-50
2023/03/21 07:57:31;;;;;;;10.65;8.43;;;;;;;18.51;50.69;101331.94;5075142;28;20040;-49
2023/03/21 07:59:58;;;;;;;11.43;9.25;;;;;;;18.52;50.52;101336.38;5076062;28;20052;-49
2023/03/21 08:02:26;;;;;;;9.73;6.68;;;;;;;18.52;51.06;101337.22;5076064;28;20056;-50
2023/03/21 08:04:53;;;;;;;14.45;7.13;;;;;;;18.54;51.10;101342.44;5075611;28;20040;-46
2023/03/21 08:07:21;;;;;;;6.85;6.13;;;;;;;18.57;51.38;101341.38;5075800;28;20041;-48
2023/03/21 08:09:48;;;;;;;8.90;5.78;;;;;;;18.57;51.30;101339.53;5083596;28;20116;-49
2023/03/21 08:12:15;;;;;;;10.15;5.80;;;;;;;18.57;51.27;101347.59;5096027;28;20056;-46
2023/03/21 08:14:43;;;;;;;7.03;5.05;;;;;;;18.59;51.38;101344.78;5096339;28;20040;-48
2023/03/21 08:17:10;;;;;;;9.32;5.13;;;;;;;18.59;51.39;101334.91;5096150;28;20390;-47
2023/03/21 08:19:38;;;;;;;8.45;4.88;;;;;;;18.60;51.36;101336.66;5096193;28;20501;-46
2023/03/21 08:22:05;;;;;;;6.68;4.68;;;;;;;18.61;51.42;101334.81;5096049;28;20047;-45
2023/03/21 08:24:33;;;;;;;7.03;5.30;;;;;;;18.62;51.53;101333.84;5096196;28;20047;-50
2023/03/21 08:27:01;;;;;;;5.13;4.18;;;;;;;18.61;51.54;101332.13;5095726;28;20044;-52
2023/03/21 08:29:28;;;;;;;7.35;5.00;;;;;;;18.63;51.53;101332.84;5088636;28;20048;-50
2023/03/21 08:31:56;;;;;;;4.88;3.85;;;;;;;18.63;51.56;101331.03;5075106;28;20052;-51
2023/03/21 08:34:25;;;;;;;6.05;3.90;;;;;;;18.64;51.61;101334.59;5075355;28;20068;-53
2023/03/21 08:36:53;;;;;;;7.53;4.30;;;;;;;18.65;51.56;101334.47;5075219;28;20048;-51
2023/03/21 08:39:21;;;;;;;6.05;4.25;;;;;;;18.65;51.48;101334.47;5075296;28;20049;-48
2023/03/21 08:41:48;;;;;;;8.40;4.35;;;;;;;18.66;51.64;101329.94;5074857;28;20067;-50
2023/03/21 08:44:15;;;;;;;5.18;3.78;;;;;;;18.67;51.71;101326.28;5075397;28;20057;-47
2023/03/21 08:46:43;;;;;;;5.53;3.67;;;;;;;18.66;51.66;101325.44;5075228;28;20048;-46
2023/03/21 08:49:11;;;;;;;5.93;4.28;;;;;;;18.68;51.50;101323.50;5075293;28;20037;-47
2023/03/21 08:51:40;;;;;;;5.53;4.03;;;;;;;18.68;51.54;101325.34;5075061;28;20044;-46
2023/03/21 08:54:16;;;;;;;7.60;3.70;;;;;;;18.69;51.49;101325.22;5075207;28;20383;-49
2023/03/21 08:56:43;;;;;;;6.63;4.07;;;;;;;18.69;51.60;101325.22;5074935;28;20056;-48
2023/03/21 08:59:10;;;;;;;5.35;3.60;;;;;;;18.70;51.56;101328.78;5075159;28;20044;-47
2023/03/21 09:01:38;;;;;;;5.47;4.20;;;;;;;18.71;51.48;101328.66;5074702;28;20052;-46
2023/03/21 09:04:09;;;;;;;5.65;3.88;;;;;;;18.73;51.52;101328.56;5074666;28;20048;-48
2023/03/21 09:06:39;;;;;;;4.93;3.55;;;;;;;18.71;51.44;101325.97;5074714;28;20147;-49
2023/03/21 09:09:08;;;;;;;5.57;4.05;;;;;;;18.73;51.49;101323.19;5074756;28;20360;-48
2023/03/21 09:11:35;;;;;;;8.15;3.40;;;;;;;18.74;51.37;101324.91;5074451;28;20048;-50
2023/03/21 09:14:33;;;;;;;7.20;3.67;;;;;;;18.74;51.32;101325.75;5074746;28;20133;-51
2023/03/21 09:17:01;;;;;;;6.47;4.07;;;;;;;18.74;51.39;101320.38;5073852;28;20076;-49
2023/03/21 09:19:29;;;;;;;4.35;3.60;;;;;;;18.75;51.40;101319.41;5074461;28;20056;-49
2023/03/21 09:21:56;;;;;;;4.80;3.40;;;;;;;18.77;51.26;101313.94;5074533;28;20055;-50
2023/03/21 09:24:25;;;;;;;6.65;3.95;;;;;;;18.77;51.22;101319.31;5074384;28;20049;-48
2023/03/21 09:26:52;;;;;;;4.75;3.55;;;;;;;18.77;51.28;101313.94;5074224;28;20056;-49
2023/03/21 09:29:20;;;;;;;4.80;3.55;;;;;;;18.77;51.25;101320.16;5074655;28;20056;-49
2023/03/21 09:31:48;;;;;;;5.57;4.03;;;;;;;18.78;51.38;101310.28;5074146;28;20048;-49
2023/03/21 09:34:16;;;;;;;4.82;3.85;;;;;;;18.79;51.28;101317.34;5074191;28;20056;-46
2023/03/21 09:36:43;;;;;;;4.90;3.75;;;;;;;18.80;51.20;101320.88;5072777;28;20044;-46
2023/03/21 09:39:11;;;;;;;5.40;3.90;;;;;;;18.80;51.26;101315.53;5074025;28;20055;-47
2023/03/21 09:42:10;;;;;;;5.25;3.65;;;;;;;18.81;50.88;101317.25;5074264;28;20056;-49
2023/03/21 09:44:44;;;;;;;6.28;4.25;;;;;;;18.82;50.98;101322.50;5074192;28;20044;-52
2023/03/21 09:47:18;;;;;;;5.47;3.95;;;;;;;18.84;51.18;101322.38;5074215;28;20044;-50
2023/03/21 09:49:52;;;;;;;6.22;4.05;;;;;;;18.84;51.02;101320.56;5074181;28;20488;-48
2023/03/21 09:53:04;;;;;;;4.45;3.53;;;;;;;18.84;51.00;101319.69;5073870;28;20048;-50
2023/03/21 09:55:35;;;;;;;6.05;3.70;;;;;;;18.84;50.90;101317.88;5073590;28;20064;-48
2023/03/21 09:58:13;;;;;;;5.50;3.85;;;;;;;18.85;50.90;101316.03;5073867;28;20037;-49
2023/03/21 10:00:46;;;;;;;6.53;3.88;;;;;;;18.83;51.02;101310.78;5073755;28;20041;-49
2023/03/21 10:03:25;;;;;;;;;;;;;;;18.84;50.99;101308.94;5074233;28;20411;-49
2023/03/21 10:05:57;;;;;;;5.35;3.95;;;;;;;18.84;50.91;101304.47;5073412;28;19921;-49
2023/03/21 10:08:35;;;;;;;5.47;4.38;;;;;;;18.84;51.08;101306.25;5073571;28;20107;-50
2023/03/21 10:11:11;;;;;;;5.28;4.05;;;;;;;18.84;51.05;101312.50;5073672;28;20075;-49
2023/03/21 10:13:45;;;;;;;5.25;3.95;;;;;;;18.83;51.02;101308.09;5073450;28;20052;-48
2023/03/21 10:16:16;;;;;;;5.60;3.90;;;;;;;18.83;51.01;101304.56;5073546;28;20048;-49
2023/03/21 10:18:45;;;;;;;4.68;3.75;;;;;;;18.83;50.93;101300.06;5073498;28;20378;-49
2023/03/21 10:21:25;;;;;;;4.60;4.10;;;;;;;18.83;50.91;101305.41;5073604;28;20040;-49
2023/03/21 10:24:25;;;;;;;6.20;4.32;;;;;;;18.84;50.94;101300.91;5073240;28;20048;-48
2023/03/21 10:26:54;;;;;;;4.97;3.95;;;;;;;18.84;50.90;101298.22;5073031;28;20052;-48
2023/03/21 10:29:35;;;;;;;6.97;4.13;;;;;;;18.84;50.92;101300.91;5073148;28;20040;-46
2023/03/21 10:32:04;;;;;;;5.13;3.88;;;;;;;18.83;50.92;101297.38;5073188;28;20059;-48
2023/03/21 10:34:38;;;;;;;4.13;3.63;;;;;;;18.83;51.03;101289.31;5073239;28;20044;-48
2023/03/21 10:37:06;;;;;;;5.93;4.47;;;;;;;18.83;50.98;101294.69;5072911;28;20045;-46
2023/03/21 10:39:39;;;;;;;5.53;4.10;;;;;;;18.83;50.67;101283.09;5072756;28;20046;-47
2023/03/21 10:42:24;;;;;;;6.43;4.50;;;;;;;18.84;50.95;101284.81;5072941;28;20048;-47
2023/03/21 10:44:54;;;;;;;4.93;3.90;;;;;;;18.84;50.90;101282.13;5073006;28;20048;-46
2023/03/21 10:47:26;;;;;;;4.70;4.07;;;;;;;18.83;50.94;101277.75;5072939;28;20052;-50
2023/03/21 10:49:53;;;;;;;5.57;4.10;;;;;;;18.84;50.88;101272.28;5073365;28;20041;-49
2023/03/21 10:52:44;;;;;;;6.45;3.97;;;;;;;18.84;50.92;101274.06;5073111;28;20382;-46
2023/03/21 10:55:24;;;;;;;8.07;4.32;;;;;;;18.84;50.90;101266.03;5073512;28;20055;-52
2023/03/21 10:57:56;;;;;;;4.35;3.85;;;;;;;18.83;51.02;101273.22;5072864;28;20443;-49
2023/03/21 11:00:28;;;;;;;6.15;3.83;;;;;;;18.84;50.99;101271.41;5072841;28;20056;-50
2023/03/21 11:02:57;;;;;;;6.07;4.70;;;;;;;18.83;50.89;101273.22;5071900;28;20064;-49
2023/03/21 11:05:32;;;;;;;5.32;4.10;;;;;;;18.85;50.86;101278.50;5077157;28;20403;-48
2023/03/21 11:08:05;;;;;;;4.28;3.63;;;;;;;18.84;50.93;101276.75;5077024;28;20071;-49
2023/03/21 11:10:50;;;;;;;4.90;3.95;;;;;;;18.85;50.87;101267.75;5077227;28;20052;-48
2023/03/21 11:13:39;;;;;;;5.65;4.10;;;;;;;18.87;50.82;101273.84;5077272;28;20052;-48
2023/03/21 11:16:21;;;;;;;4.60;4.10;;;;;;;18.87;50.84;101279.22;5077065;28;20466;-45
2023/03/21 11:18:50;;;;;;;5.32;4.28;;;;;;;18.86;50.91;101270.31;5076935;28;20397;-45
2023/03/21 11:21:20;;;;;;;5.93;4.00;;;;;;;18.86;50.95;101269.47;5076930;28;20489;-45
2023/03/21 11:23:50;;;;;;;5.88;3.72;;;;;;;18.85;50.84;101271.28;5076978;28;20053;-46
2023/03/21 11:26:31;;;;;;;4.53;4.13;;;;;;;18.86;50.86;101277.50;5076516;28;20056;-46
2023/03/21 11:29:00;;;;;;;4.90;3.58;;;;;;;18.86;50.85;101269.47;5076789;28;20431;-46
2023/03/21 11:31:38;;;;;;;6.50;3.60;;;;;;;18.85;50.86;101265.94;5076671;28;20052;-47
2023/03/21 11:34:08;;;;;;;5.18;3.58;;;;;;;18.85;50.88;101263.25;5076652;28;20052;-48
2023/03/21 11:36:40;;;;;;;5.47;3.85;;;;;;;18.86;50.78;101261.41;5076692;28;20056;-48
2023/03/21 11:39:10;;;;;;;5.78;4.10;;;;;;;18.85;50.94;101260.56;5076653;28;20040;-49
2023/03/21 11:41:39;;;;;;;7.20;5.53;;;;;;;18.85;50.48;101257.03;5076918;28;20040;-50
2023/03/21 11:44:25;;;;;;;5.05;4.22;;;;;;;18.84;50.49;101248.13;5076787;28;20055;-46
2023/03/21 11:46:53;;;;;;;6.70;3.70;;;;;;;18.85;50.63;101240.94;5076417;28;20063;-46
2023/03/21 11:49:22;;;;;;;5.35;4.40;;;;;;;18.85;50.82;101243.63;5076358;28;20043;-46
2023/03/21 11:52:07;;;;;;;5.07;3.67;;;;;;;18.85;50.71;101232.88;5076400;28;20040;-47
2023/03/21 11:54:43;;;;;;;4.95;3.55;;;;;;;18.85;50.73;101224.84;5076428;28;20049;-48
2023/03/21 11:57:42;;;;;;;4.75;3.78;;;;;;;18.85;50.86;101222.16;5076405;28;20048;-49